createdAt,value
2022-08-11T00:00:22.511Z,101854.05
2022-08-11T00:04:11.577Z,101857.00
2022-08-11T00:08:02.122Z,101852.45
2022-08-11T00:11:39.541Z,101849.08
2022-08-11T00:15:00.454Z,101848.18
2022-08-11T00:18:47.872Z,101848.64
2022-08-11T00:22:35.264Z,101849.95
2022-08-11T00:26:22.631Z,101843.55
2022-08-11T00:29:32.671Z,101841.41
2022-08-11T00:33:44.437Z,101835.89
2022-08-11T00:37:32.822Z,101838.67
2022-08-11T00:41:22.847Z,101840.95
2022-08-11T00:45:22.303Z,101840.92
2022-08-11T00:49:18.517Z,101843.33
2022-08-11T00:53:05.887Z,101840.91
2022-08-11T00:56:51.518Z,101841.94
2022-08-11T01:00:55.801Z,101841.77
2022-08-11T01:05:00.452Z,101841.92
2022-08-11T01:08:53.828Z,101843.31
2022-08-11T01:12:51.540Z,101833.30
2022-08-11T01:16:47.639Z,101832.30
2022-08-11T01:20:53.167Z,101833.11
2022-08-11T01:24:37.492Z,101838.84
2022-08-11T01:28:32.817Z,101844.84
2022-08-11T01:32:36.803Z,101846.61
2022-08-11T01:36:41.757Z,101845.58
2022-08-11T01:40:27.227Z,101844.13
2022-08-11T01:44:23.726Z,101845.51
2022-08-11T01:48:23.048Z,101843.39
2022-08-11T01:52:30.147Z,101839.90
2022-08-11T01:56:25.155Z,101841.05
2022-08-11T02:00:17.257Z,101841.67
2022-08-11T02:04:19.621Z,101841.91
2022-08-11T02:08:20.418Z,101840.21
2022-08-11T02:12:26.717Z,101840.75
2022-08-11T02:16:19.996Z,101844.33
2022-08-11T02:20:23.628Z,101841.86
2022-08-11T02:24:13.853Z,101842.70
2022-08-11T02:28:07.116Z,101840.88
2022-08-11T02:32:14.890Z,101838.82
2022-08-11T02:36:02.857Z,101839.20
2022-08-11T02:39:53.210Z,101837.45
2022-08-11T02:43:52.418Z,101838.23
2022-08-11T02:47:57.809Z,101834.52
2022-08-11T02:51:44.817Z,101842.36
2022-08-11T02:55:45.973Z,101838.73
2022-08-11T02:59:27.992Z,101838.75
2022-08-11T03:03:12.004Z,101839.47
2022-08-11T03:06:59.614Z,101842.41
2022-08-11T03:11:01.958Z,101838.66
2022-08-11T03:14:53.102Z,101837.15
2022-08-11T03:18:40.269Z,101843.67
2022-08-11T03:22:45.768Z,101841.58
2022-08-11T03:27:03.518Z,101843.60
2022-08-11T03:30:40.398Z,101843.17
2022-08-11T03:34:30.095Z,101846.20
2022-08-11T03:38:30.509Z,101850.36
2022-08-11T03:42:08.453Z,101853.38
2022-08-11T03:46:03.217Z,101852.30
2022-08-11T03:49:59.979Z,101855.41
2022-08-11T03:53:45.432Z,101856.98
2022-08-11T03:57:50.945Z,101863.13
2022-08-11T04:01:35.548Z,101860.44
2022-08-11T04:05:27.460Z,101857.83
2022-08-11T04:09:23.656Z,101859.27
2022-08-11T04:13:13.072Z,101858.65
2022-08-11T04:17:00.319Z,101859.95
2022-08-11T04:20:33.719Z,101860.80
2022-08-11T04:24:38.701Z,101855.07
2022-08-11T04:28:50.379Z,101855.30
2022-08-11T04:32:33.914Z,101857.17
2022-08-11T04:36:27.907Z,101860.27
2022-08-11T04:40:25.679Z,101858.85
2022-08-11T04:44:11.692Z,101853.85
2022-08-11T04:48:13.593Z,101849.69
2022-08-11T04:52:13.511Z,101850.91
2022-08-11T04:55:56.441Z,101853.16
2022-08-11T04:59:46.886Z,101852.08
2022-08-11T05:03:32.536Z,101858.27
2022-08-11T05:07:32.106Z,101855.64
2022-08-11T05:11:25.814Z,101862.96
2022-08-11T05:15:14.367Z,101867.77
2022-08-11T05:18:49.775Z,101871.67
2022-08-11T05:22:39.553Z,101871.15
2022-08-11T05:26:47.207Z,101873.25
2022-08-11T05:30:48.205Z,101871.23
2022-08-11T05:34:30.904Z,101879.41
2022-08-11T05:38:28.978Z,101878.24
2022-08-11T05:42:29.446Z,101879.70
2022-08-11T05:46:17.746Z,101877.02
2022-08-11T05:50:04.125Z,101878.92
2022-08-11T05:53:46.250Z,101878.45
2022-08-11T05:57:42.329Z,101879.67
2022-08-11T06:01:29.743Z,101883.16
2022-08-11T06:05:20.511Z,101889.39
2022-08-11T06:08:50.892Z,101887.49
2022-08-11T06:12:28.460Z,101892.54
2022-08-11T06:16:19.082Z,101889.86
2022-08-11T06:20:13.313Z,101888.61
2022-08-11T06:24:01.080Z,101889.88
2022-08-11T06:27:41.602Z,101886.70
2022-08-11T06:31:28.323Z,101888.39
2022-08-11T06:35:18.845Z,101891.21
2022-08-11T06:39:06.194Z,101895.64
2022-08-11T06:42:53.725Z,101890.70
2022-08-11T06:46:47.243Z,101887.20
2022-08-11T06:50:23.421Z,101885.96
2022-08-11T06:54:10.679Z,101890.31
2022-08-11T06:57:56.166Z,101890.39
2022-08-11T07:01:43.878Z,101888.14
2022-08-11T07:05:37.029Z,101883.52
2022-08-11T07:09:40.683Z,101881.95
2022-08-11T07:13:45.005Z,101882.40
2022-08-11T07:17:23.223Z,101881.02
2022-08-11T07:22:00.776Z,101878.84
2022-08-11T07:25:37.857Z,101875.45
2022-08-11T07:29:25.901Z,101879.37
2022-08-11T07:34:04.855Z,101873.27
2022-08-11T07:37:20.923Z,101881.09
2022-08-11T07:41:08.880Z,101883.94
2022-08-11T07:44:59.381Z,101886.98
2022-08-11T07:48:45.031Z,101883.56
2022-08-11T07:52:52.829Z,101881.67
2022-08-11T07:56:55.077Z,101880.68
2022-08-11T08:00:41.884Z,101879.57
2022-08-11T08:04:23.297Z,101878.95
2022-08-11T08:08:09.247Z,101876.79
2022-08-11T08:11:44.357Z,101873.14
2022-08-11T08:15:11.439Z,101865.63
2022-08-11T08:18:26.686Z,101870.07
2022-08-11T08:21:50.491Z,101859.27
2022-08-11T08:25:16.695Z,101861.79
2022-08-11T08:28:54.662Z,101861.12
2022-08-11T08:32:28.275Z,101861.63
2022-08-11T08:35:37.797Z,101853.42
2022-08-11T08:39:17.548Z,101850.28
2022-08-11T08:42:45.485Z,101847.57
2022-08-11T08:46:29.085Z,101842.93
2022-08-11T08:49:43.227Z,101840.87
2022-08-11T08:53:11.652Z,101844.08
2022-08-11T08:56:43.158Z,101838.04
2022-08-11T09:00:12.908Z,101835.06
2022-08-11T09:04:05.413Z,101830.40
2022-08-11T09:07:42.687Z,101829.49
2022-08-11T09:11:14.002Z,101824.17
2022-08-11T09:14:50.313Z,101824.69
2022-08-11T09:18:07.545Z,101821.30
2022-08-11T09:21:25.873Z,101817.45
2022-08-11T09:25:02.910Z,101820.06
2022-08-11T09:28:35.194Z,101822.48
2022-08-11T09:32:05.175Z,101816.58
2022-08-11T09:35:54.599Z,101816.39
2022-08-11T09:39:15.754Z,101813.08
2022-08-11T09:42:27.058Z,101811.29
2022-08-11T09:46:11.065Z,101804.02
2022-08-11T09:49:59.015Z,101808.60
2022-08-11T09:54:02.701Z,101807.71
2022-08-11T09:57:52.546Z,101811.96
2022-08-11T10:01:40.680Z,101811.73
2022-08-11T10:05:30.201Z,101816.93
2022-08-11T10:09:17.862Z,101812.56
2022-08-11T10:14:30.248Z,101803.24
2022-08-11T10:17:10.720Z,101795.63
2022-08-11T10:20:58.417Z,101782.60
2022-08-11T10:24:45.917Z,101784.30
2022-08-11T10:28:28.631Z,101777.93
2022-08-11T10:31:57.013Z,101770.81
2022-08-11T10:35:47.514Z,101771.73
2022-08-11T10:39:21.964Z,101770.50
2022-08-11T10:42:57.845Z,101768.19
2022-08-11T10:46:44.730Z,101761.13
2022-08-11T10:50:17.895Z,101759.52
2022-08-11T10:54:00.730Z,101759.80
2022-08-11T10:57:33.223Z,101752.04
2022-08-11T11:00:59.995Z,101746.11
2022-08-11T11:04:48.912Z,101734.47
2022-08-11T11:08:40.265Z,101728.09
2022-08-11T11:12:12.337Z,101731.64
2022-08-11T11:15:52.928Z,101723.32
2022-08-11T11:19:12.765Z,101726.67
2022-08-11T11:22:58.982Z,101724.03
2022-08-11T11:26:27.680Z,101716.98
2022-08-11T11:29:57.142Z,101718.75
2022-08-11T11:34:12.316Z,101725.02
2022-08-11T11:38:03.875Z,101711.33
2022-08-11T11:41:46.160Z,101711.46
2022-08-11T11:45:07.971Z,101710.45
2022-08-11T11:48:58.271Z,101709.30
2022-08-11T11:52:46.221Z,101705.27
2022-08-11T11:56:33.953Z,101694.09
2022-08-11T12:00:21.071Z,101701.05
2022-08-11T12:04:10.379Z,101708.59
2022-08-11T12:08:06.535Z,101698.95
2022-08-11T12:11:58.771Z,101690.88
2022-08-11T12:16:31.897Z,101690.25
2022-08-11T12:19:43.252Z,101678.24
2022-08-11T12:22:45.266Z,101679.40
2022-08-11T12:26:34.179Z,101667.58
2022-08-11T12:30:11.947Z,101667.22
2022-08-11T12:33:38.787Z,101665.86
2022-08-11T12:37:03.966Z,101662.36
2022-08-11T12:41:15.128Z,101653.03
2022-08-11T12:44:25.708Z,101634.64
2022-08-11T12:47:20.421Z,101632.98
2022-08-11T12:50:51.944Z,101627.69
2022-08-11T12:54:40.229Z,101616.40
2022-08-11T12:58:37.525Z,101624.77
2022-08-11T13:02:13.318Z,101636.84
2022-08-11T13:05:32.278Z,101634.42
2022-08-11T13:09:23.948Z,101619.16
2022-08-11T13:13:52.333Z,101617.66
2022-08-11T13:17:19.844Z,101610.30
2022-08-11T13:20:58.349Z,101611.95
2022-08-11T13:24:36.553Z,101605.45
2022-08-11T13:27:45.322Z,101609.84
2022-08-11T13:31:07.410Z,101597.10
2022-08-11T13:34:47.369Z,101591.70
2022-08-11T13:38:19.498Z,101582.75
2022-08-11T13:42:02.090Z,101579.79
2022-08-11T13:45:51.530Z,101580.08
2022-08-11T13:49:33.371Z,101575.39
2022-08-11T13:53:21.635Z,101574.55
2022-08-11T13:57:13.494Z,101565.83
2022-08-11T14:02:22.510Z,101559.73
2022-08-11T14:05:14.849Z,101549.36
2022-08-11T14:08:47.255Z,101545.22
2022-08-11T14:12:33.904Z,101536.91
2022-08-11T14:16:13.653Z,101535.88
2022-08-11T14:20:01.244Z,101533.64
2022-08-11T14:24:07.635Z,101542.92
2022-08-11T14:28:33.913Z,101539.64
2022-08-11T14:32:06.272Z,101543.18
2022-08-11T14:35:54.214Z,101540.95
2022-08-11T14:39:51.322Z,101544.46
2022-08-11T14:44:13.193Z,101545.75
2022-08-11T14:47:51.524Z,101545.37
2022-08-11T14:51:41.758Z,101548.71
2022-08-11T14:55:31.039Z,101539.27
2022-08-11T14:59:18.988Z,101536.55
2022-08-11T15:03:05.674Z,101529.34
2022-08-11T15:06:53.749Z,101524.08
2022-08-11T15:10:41.561Z,101524.16
2022-08-11T15:14:12.250Z,101524.59
2022-08-11T15:17:48.708Z,101528.20
2022-08-11T15:21:36.180Z,101520.38
2022-08-11T15:25:26.050Z,101517.86
2022-08-11T15:29:15.382Z,101519.65
2022-08-11T15:33:02.354Z,101516.60
2022-08-11T15:36:51.233Z,101513.93
2022-08-11T15:40:41.218Z,101509.98
2022-08-11T15:45:01.160Z,101516.14
2022-08-11T15:48:45.560Z,101514.45
2022-08-11T15:52:02.209Z,101517.59
2022-08-11T15:55:30.326Z,101516.92
2022-08-11T15:58:45.966Z,101519.48
2022-08-11T16:02:52.231Z,101516.77
2022-08-11T16:06:40.535Z,101514.04
2022-08-11T16:10:38.418Z,101516.77
2022-08-11T16:14:27.628Z,101513.80
2022-08-11T16:18:15.332Z,101513.21
2022-08-11T16:22:15.263Z,101511.50
2022-08-11T16:27:07.948Z,101512.20
2022-08-11T16:29:44.265Z,101511.88
2022-08-11T16:33:50.278Z,101510.59
2022-08-11T16:37:31.248Z,101508.17
2022-08-11T16:41:19.273Z,101508.05
2022-08-11T16:44:56.526Z,101510.52
2022-08-11T16:48:36.081Z,101508.95
2022-08-11T16:52:05.392Z,101513.80
2022-08-11T16:55:51.953Z,101513.67
2022-08-11T16:59:34.812Z,101516.34
2022-08-11T17:03:05.867Z,101513.75
2022-08-11T17:15:30.639Z,101517.95
2022-08-11T17:19:00.453Z,101514.91
2022-08-11T17:22:47.082Z,101513.24
2022-08-11T17:26:35.160Z,101513.90
2022-08-11T17:30:34.383Z,101513.61
2022-08-11T17:34:21.106Z,101513.00
2022-08-11T17:38:08.909Z,101515.45
2022-08-11T17:41:36.440Z,101518.13
2022-08-11T17:45:22.885Z,101513.05
2022-08-11T17:49:13.298Z,101513.80
2022-08-11T17:52:59.386Z,101515.04
2022-08-11T17:56:38.208Z,101515.79
2022-08-11T18:00:18.457Z,101516.79
2022-08-11T18:03:25.727Z,101514.08
2022-08-11T18:06:35.943Z,101511.02
2022-08-11T18:09:26.352Z,101506.57
2022-08-11T18:13:12.559Z,101509.49
2022-08-11T18:16:52.229Z,101510.09
2022-08-11T18:20:19.864Z,101510.10
2022-08-11T18:23:56.685Z,101507.08
2022-08-11T18:27:06.666Z,101508.18
2022-08-11T18:31:02.763Z,101512.05
2022-08-11T18:34:35.383Z,101516.19
2022-08-11T18:38:04.358Z,101519.88
2022-08-11T18:41:50.669Z,101519.31
2022-08-11T18:45:45.690Z,101523.02
2022-08-11T18:50:03.397Z,101524.02
2022-08-11T18:53:45.793Z,101522.39
2022-08-11T18:57:32.879Z,101528.95
2022-08-11T19:01:23.696Z,101533.69
2022-08-11T19:05:02.081Z,101535.50
2022-08-11T19:08:48.150Z,101538.70
2022-08-11T19:12:39.159Z,101536.47
2022-08-11T19:16:21.782Z,101535.77
2022-08-11T19:20:01.856Z,101535.42
2022-08-11T19:23:25.637Z,101536.59
2022-08-11T19:27:13.618Z,101541.65
2022-08-11T19:31:02.654Z,101541.89
2022-08-11T19:34:52.078Z,101544.74
2022-08-11T19:38:41.094Z,101556.80
2022-08-11T19:42:28.892Z,101566.66
2022-08-11T19:46:20.196Z,101568.55
2022-08-11T19:50:06.856Z,101571.73
2022-08-11T19:53:54.225Z,101577.30
2022-08-11T19:57:38.770Z,101582.03
2022-08-11T20:01:27.430Z,101580.27
2022-08-11T20:04:46.151Z,101579.70
2022-08-11T20:08:18.723Z,101580.27
2022-08-11T20:11:58.783Z,101578.05
2022-08-11T20:15:46.232Z,101586.38
2022-08-11T20:19:15.901Z,101585.85
2022-08-11T20:23:03.012Z,101586.30
2022-08-11T20:26:49.358Z,101587.17
2022-08-11T20:30:35.582Z,101592.66
2022-08-11T20:34:21.828Z,101597.65
2022-08-11T20:38:13.167Z,101600.47
2022-08-11T20:41:59.184Z,101595.35
2022-08-11T20:45:37.135Z,101595.20
2022-08-11T20:49:44.863Z,101591.33
2022-08-11T20:53:39.145Z,101591.91
2022-08-11T20:57:57.796Z,101593.89
2022-08-11T21:01:42.517Z,101592.55
2022-08-11T21:06:09.435Z,101592.84
2022-08-11T21:10:00.984Z,101597.70
2022-08-11T21:13:56.781Z,101600.81
2022-08-11T21:18:00.702Z,101603.05
2022-08-11T21:21:46.360Z,101599.70
2022-08-11T21:25:35.710Z,101599.20
2022-08-11T21:29:22.137Z,101602.98
2022-08-11T21:33:09.312Z,101601.16
2022-08-11T21:36:49.316Z,101602.20
2022-08-11T21:40:35.527Z,101601.99
2022-08-11T21:44:21.659Z,101601.70
2022-08-11T21:48:07.478Z,101603.57
2022-08-11T21:51:53.492Z,101607.48
2022-08-11T21:55:39.618Z,101599.34
2022-08-11T21:59:25.011Z,101599.77
2022-08-11T22:03:10.918Z,101600.33
2022-08-11T22:06:56.869Z,101597.77
2022-08-11T22:10:43.286Z,101589.33
2022-08-11T22:14:29.548Z,101587.86
2022-08-11T22:18:15.716Z,101587.56
2022-08-11T22:22:02.808Z,101584.69
2022-08-11T22:25:51.257Z,101582.83
2022-08-11T22:29:51.252Z,101581.63
2022-08-11T22:33:28.969Z,101580.48
2022-08-11T22:37:27.154Z,101580.23
2022-08-11T22:41:13.673Z,101579.63
2022-08-11T22:44:59.767Z,101574.69
2022-08-11T22:48:45.841Z,101575.29
2022-08-11T22:52:31.838Z,101579.77
2022-08-11T22:56:17.950Z,101579.76
2022-08-11T23:00:17.932Z,101583.72
2022-08-11T23:04:03.985Z,101586.59
2022-08-11T23:07:52.088Z,101585.77
2022-08-11T23:12:04.787Z,101586.77
2022-08-11T23:15:44.348Z,101591.41
2022-08-11T23:20:07.197Z,101592.92
2022-08-11T23:23:36.451Z,101590.86
2022-08-11T23:26:56.384Z,101590.17
2022-08-11T23:30:42.242Z,101592.44
2022-08-11T23:34:37.016Z,101586.13
2022-08-11T23:38:34.128Z,101588.53
2022-08-11T23:41:52.907Z,101585.15
2022-08-11T23:45:38.858Z,101584.28
2022-08-11T23:49:14.495Z,101588.05
2022-08-11T23:53:00.103Z,101592.34
2022-08-11T23:56:46.128Z,101586.64
